createdAt,value
2022-10-11T00:01:42.471Z,7.85
2022-10-11T00:04:09.114Z,12.65
2022-10-11T00:06:37.928Z,10.20
2022-10-11T00:09:07.715Z,8.25
2022-10-11T00:11:34.455Z,6.70
2022-10-11T00:14:01.048Z,14.20
2022-10-11T00:16:27.614Z,6.95
2022-10-11T00:18:54.312Z,7.38
2022-10-11T00:21:21.698Z,8.88
2022-10-11T00:23:49.323Z,9.85
2022-10-11T00:26:16.651Z,9.68
2022-10-11T00:28:43.317Z,9.25
2022-10-11T00:31:15.846Z,9.50
2022-10-11T00:33:42.620Z,9.18
2022-10-11T00:36:09.980Z,6.57
2022-10-11T00:38:36.669Z,6.93
2022-10-11T00:41:03.202Z,9.38
2022-10-11T00:43:31.406Z,7.30
2022-10-11T00:45:58.111Z,7.30
2022-10-11T00:48:33.750Z,7.93
2022-10-11T00:51:03.593Z,8.38
2022-10-11T00:53:32.201Z,6.78
2022-10-11T00:56:08.910Z,8.63
2022-10-11T00:58:37.098Z,10.07
2022-10-11T01:01:03.953Z,7.47
2022-10-11T01:03:32.964Z,11.90
2022-10-11T01:05:59.639Z,13.10
2022-10-11T01:08:27.120Z,7.05
2022-10-11T01:10:54.076Z,9.10
2022-10-11T01:13:31.708Z,10.52
2022-10-11T01:15:58.351Z,10.95
2022-10-11T01:18:49.948Z,10.98
2022-10-11T01:21:32.112Z,9.30
2022-10-11T01:24:35.929Z,8.43
2022-10-11T01:27:25.579Z,8.77
2022-10-11T01:30:18.752Z,9.00
2022-10-11T01:33:09.494Z,11.57
2022-10-11T01:35:42.188Z,6.95
2022-10-11T01:38:17.448Z,7.60
2022-10-11T01:40:58.532Z,7.63
2022-10-11T01:43:27.132Z,11.23
2022-10-11T01:45:56.300Z,7.35
2022-10-11T01:48:23.126Z,10.40
2022-10-11T01:50:53.021Z,9.80
2022-10-11T01:53:44.328Z,8.60
2022-10-11T01:56:28.847Z,8.00
2022-10-11T01:59:10.696Z,11.68
2022-10-11T02:01:44.286Z,9.15
2022-10-11T02:04:27.371Z,7.38
2022-10-11T02:06:59.381Z,7.55
2022-10-11T02:09:32.006Z,9.95
2022-10-11T02:12:05.507Z,13.18
2022-10-11T02:14:51.838Z,9.68
2022-10-11T02:17:21.442Z,10.68
2022-10-11T02:19:52.307Z,8.88
2022-10-11T02:22:24.818Z,10.52
2022-10-11T02:24:56.321Z,12.90
2022-10-11T02:27:27.725Z,10.13
2022-10-11T02:29:56.406Z,8.95
2022-10-11T02:32:25.628Z,7.43
2022-10-11T02:35:01.573Z,11.82
2022-10-11T02:37:53.024Z,7.82
2022-10-11T02:40:39.699Z,11.25
2022-10-11T02:43:17.598Z,11.65
2022-10-11T02:45:50.295Z,9.55
2022-10-11T02:48:17.905Z,10.82
2022-10-11T02:50:44.672Z,7.43
2022-10-11T02:53:11.368Z,12.13
2022-10-11T02:55:38.047Z,8.07
2022-10-11T02:58:04.721Z,8.20
2022-10-11T03:00:31.581Z,9.32
2022-10-11T03:02:59.648Z,7.88
2022-10-11T03:05:26.297Z,7.47
2022-10-11T03:07:53.049Z,8.27
2022-10-11T03:10:22.593Z,8.27
2022-10-11T03:12:49.279Z,8.90
2022-10-11T03:15:15.937Z,10.52
2022-10-11T03:17:42.566Z,6.28
2022-10-11T03:20:09.746Z,7.10
2022-10-11T03:22:36.764Z,10.15
2022-10-11T03:25:04.636Z,7.32
2022-10-11T03:27:32.918Z,11.63
2022-10-11T03:29:59.849Z,7.90
2022-10-11T03:32:26.562Z,5.75
2022-10-11T03:34:53.239Z,4.70
2022-10-11T03:37:19.893Z,7.35
2022-10-11T03:39:46.640Z,9.75
2022-10-11T03:42:14.197Z,10.05
2022-10-11T03:44:42.250Z,6.35
2022-10-11T03:47:09.427Z,4.88
2022-10-11T03:49:41.227Z,19.38
2022-10-11T03:52:10.382Z,6.25
2022-10-11T03:54:37.072Z,7.97
2022-10-11T03:57:03.838Z,7.05
2022-10-11T03:59:30.472Z,9.02
2022-10-11T04:01:57.216Z,6.97
2022-10-11T04:04:24.047Z,6.38
2022-10-11T04:06:50.738Z,6.18
2022-10-11T04:09:17.552Z,10.23
2022-10-11T04:11:44.337Z,8.10
2022-10-11T04:14:11.025Z,6.72
2022-10-11T04:16:38.882Z,7.75
2022-10-11T04:19:05.631Z,6.28
2022-10-11T04:21:32.284Z,6.25
2022-10-11T04:23:59.008Z,6.38
2022-10-11T04:26:25.725Z,5.72
2022-10-11T04:28:52.451Z,6.53
2022-10-11T04:31:19.666Z,8.02
2022-10-11T04:33:46.389Z,11.32
2022-10-11T04:36:13.063Z,8.13
2022-10-11T04:38:39.744Z,8.63
2022-10-11T04:41:10.625Z,10.02
2022-10-11T04:43:37.788Z,18.92
2022-10-11T04:46:06.083Z,15.43
2022-10-11T04:48:33.018Z,9.93
2022-10-11T04:50:59.797Z,10.45
2022-10-11T04:53:26.571Z,13.27
2022-10-11T04:56:01.735Z,10.52
2022-10-11T04:58:29.648Z,10.30
2022-10-11T05:00:57.120Z,11.68
2022-10-11T05:03:24.521Z,8.18
2022-10-11T05:05:51.473Z,10.10
2022-10-11T05:08:18.237Z,8.73
2022-10-11T05:10:58.801Z,10.15
2022-10-11T05:13:26.736Z,7.25
2022-10-11T05:15:53.874Z,14.70
2022-10-11T05:18:21.163Z,14.05
2022-10-11T05:20:48.123Z,10.35
2022-10-11T05:23:14.776Z,10.25
2022-10-11T05:25:41.769Z,14.75
2022-10-11T05:28:08.512Z,11.75
2022-10-11T05:30:35.222Z,10.23
2022-10-11T05:33:02.439Z,7.30
2022-10-11T05:35:29.138Z,10.38
2022-10-11T05:37:55.742Z,8.70
2022-10-11T05:40:22.523Z,10.10
2022-10-11T05:42:49.147Z,17.77
2022-10-11T05:45:15.798Z,12.65
2022-10-11T05:47:42.452Z,9.00
2022-10-11T05:50:09.575Z,11.20
2022-10-11T05:52:36.239Z,12.50
2022-10-11T05:55:03.528Z,11.02
2022-10-11T05:57:30.153Z,14.98
2022-10-11T05:59:56.848Z,15.02
2022-10-11T06:02:23.581Z,10.48
2022-10-11T06:04:50.235Z,10.15
2022-10-11T06:07:16.934Z,10.65
2022-10-11T06:09:43.617Z,10.52
2022-10-11T06:12:10.240Z,10.70
2022-10-11T06:14:36.975Z,14.45
2022-10-11T06:17:03.726Z,11.52
2022-10-11T06:19:30.330Z,11.13
2022-10-11T06:21:57.009Z,10.90
2022-10-11T06:24:23.763Z,10.90
2022-10-11T06:26:50.416Z,12.77
2022-10-11T06:29:17.030Z,13.65
2022-10-11T06:31:44.305Z,10.68
2022-10-11T06:34:11.325Z,9.95
2022-10-11T06:36:37.981Z,11.65
2022-10-11T06:39:04.874Z,10.18
2022-10-11T06:41:31.575Z,18.58
2022-10-11T06:43:58.395Z,15.45
2022-10-11T06:46:26.698Z,16.08
2022-10-11T06:48:54.171Z,13.20
2022-10-11T06:51:22.395Z,13.13
2022-10-11T06:53:55.436Z,11.23
2022-10-11T06:56:22.271Z,17.33
2022-10-11T06:58:48.994Z,12.50
2022-10-11T07:01:18.706Z,9.77
2022-10-11T07:03:48.452Z,9.93
2022-10-11T07:06:18.255Z,9.30
2022-10-11T07:08:45.326Z,9.02
2022-10-11T07:11:14.932Z,5.90
2022-10-11T07:13:42.198Z,7.07
2022-10-11T07:16:13.013Z,10.35
2022-10-11T07:18:40.022Z,11.30
2022-10-11T07:21:09.328Z,8.57
2022-10-11T07:23:36.091Z,9.02
2022-10-11T07:26:04.418Z,9.13
2022-10-11T07:28:31.678Z,8.50
2022-10-11T07:30:59.424Z,7.80
2022-10-11T07:33:26.143Z,8.52
2022-10-11T07:35:57.224Z,9.60
2022-10-11T07:38:23.862Z,8.27
2022-10-11T07:40:50.539Z,8.38
2022-10-11T07:43:17.403Z,9.52
2022-10-11T07:45:48.861Z,9.02
2022-10-11T07:48:15.931Z,10.07
2022-10-11T07:50:42.623Z,8.82
2022-10-11T07:53:10.047Z,10.18
2022-10-11T07:55:42.219Z,13.73
2022-10-11T07:58:10.653Z,9.73
2022-10-11T08:00:38.014Z,17.92
2022-10-11T08:03:06.652Z,17.33
2022-10-11T08:05:33.675Z,14.20
2022-10-11T08:08:00.990Z,16.20
2022-10-11T08:10:28.553Z,16.23
2022-10-11T08:12:55.229Z,13.90
2022-10-11T08:15:21.890Z,10.90
2022-10-11T08:17:48.721Z,11.43
2022-10-11T08:20:15.400Z,16.50
2022-10-11T08:22:42.124Z,12.00
2022-10-11T08:25:08.886Z,12.02
2022-10-11T08:27:36.426Z,13.57
2022-10-11T08:30:04.147Z,13.75
2022-10-11T08:32:30.834Z,17.33
2022-10-11T08:34:57.505Z,16.92
2022-10-11T08:37:24.234Z,18.20
2022-10-11T08:39:50.858Z,24.02
2022-10-11T08:42:35.035Z,20.27
2022-10-11T08:45:12.286Z,20.90
2022-10-11T08:47:45.113Z,19.45
2022-10-11T08:50:21.127Z,18.38
2022-10-11T08:53:02.895Z,25.17
2022-10-11T08:55:51.650Z,18.48
2022-10-11T08:58:24.411Z,20.83
2022-10-11T09:00:54.165Z,15.40
2022-10-11T09:03:34.556Z,14.23
2022-10-11T09:06:21.500Z,23.60
2022-10-11T09:09:15.862Z,17.17
2022-10-11T09:11:54.636Z,19.90
2022-10-11T09:14:39.436Z,20.75
2022-10-11T09:17:17.699Z,14.68
2022-10-11T09:19:56.256Z,25.70
2022-10-11T09:22:47.876Z,20.42
2022-10-11T09:25:20.300Z,15.23
2022-10-11T09:28:13.300Z,19.92
2022-10-11T09:30:49.909Z,21.90
2022-10-11T09:33:26.132Z,22.83
2022-10-11T09:35:52.900Z,17.35
2022-10-11T09:38:31.726Z,15.82
2022-10-11T09:41:22.092Z,17.75
2022-10-11T09:43:51.040Z,17.45
2022-10-11T09:46:20.567Z,12.35
2022-10-11T09:48:47.587Z,15.63
2022-10-11T09:51:27.538Z,17.02
2022-10-11T09:54:00.500Z,20.48
2022-10-11T09:56:30.376Z,13.23
2022-10-11T09:59:33.528Z,14.95
2022-10-11T10:02:21.076Z,16.33
2022-10-11T10:04:58.186Z,18.08
2022-10-11T10:07:25.900Z,14.07
2022-10-11T10:09:53.271Z,14.07
2022-10-11T10:12:30.704Z,16.60
2022-10-11T10:15:18.847Z,15.20
2022-10-11T10:17:50.688Z,12.88
2022-10-11T10:20:33.263Z,13.30
2022-10-11T10:23:34.951Z,15.10
2022-10-11T10:26:21.483Z,15.32
2022-10-11T10:28:57.535Z,14.82
2022-10-11T10:31:44.447Z,20.30
2022-10-11T10:34:35.341Z,24.05
2022-10-11T10:37:27.041Z,13.65
2022-10-11T10:40:02.007Z,12.60
2022-10-11T10:42:28.980Z,13.38
2022-10-11T10:44:58.558Z,13.50
2022-10-11T10:47:43.723Z,13.23
2022-10-11T10:50:23.696Z,14.27
2022-10-11T10:53:17.833Z,12.98
2022-10-11T10:56:00.757Z,13.70
2022-10-11T10:58:45.069Z,11.18
2022-10-11T11:01:33.452Z,14.85
2022-10-11T11:04:03.119Z,18.27
2022-10-11T11:06:46.694Z,12.35
2022-10-11T11:09:13.331Z,17.58
2022-10-11T11:12:24.645Z,13.88
2022-10-11T11:15:03.621Z,11.95
2022-10-11T11:18:00.335Z,17.33
2022-10-11T11:20:39.100Z,12.95
2022-10-11T11:23:23.783Z,18.15
2022-10-11T11:25:57.538Z,12.63
2022-10-11T11:28:57.030Z,12.82
2022-10-11T11:32:11.896Z,10.70
2022-10-11T11:34:41.185Z,11.07
2022-10-11T11:37:23.619Z,12.10
2022-10-11T11:39:54.288Z,16.15
2022-10-11T11:42:31.715Z,14.10
2022-10-11T11:45:04.717Z,14.05
2022-10-11T11:47:42.523Z,14.13
2022-10-11T11:50:28.555Z,20.27
2022-10-11T11:53:08.028Z,16.92
2022-10-11T11:55:44.191Z,13.40
2022-10-11T11:58:34.318Z,14.13
2022-10-11T12:01:30.985Z,11.65
2022-10-11T12:04:05.312Z,10.70
2022-10-11T12:06:35.884Z,13.25
2022-10-11T12:09:20.427Z,16.13
2022-10-11T12:11:57.489Z,12.95
2022-10-11T12:14:33.186Z,10.57
2022-10-11T12:17:17.941Z,14.30
2022-10-11T12:20:21.221Z,10.65
2022-10-11T12:22:52.416Z,9.02
2022-10-11T12:25:22.125Z,9.73
2022-10-11T12:27:50.332Z,10.98
2022-10-11T12:30:47.091Z,11.68
2022-10-11T12:33:24.767Z,13.82
2022-10-11T12:36:07.384Z,12.25
2022-10-11T12:38:37.950Z,12.63
2022-10-11T12:41:10.445Z,9.57
2022-10-11T12:44:07.539Z,10.73
2022-10-11T12:46:41.438Z,9.32
2022-10-11T12:49:45.212Z,9.20
2022-10-11T12:52:17.941Z,11.52
2022-10-11T12:55:03.218Z,12.25
2022-10-11T12:57:59.102Z,9.75
2022-10-11T13:00:34.013Z,10.50
2022-10-11T13:03:31.845Z,9.77
2022-10-11T13:06:01.914Z,13.23
2022-10-11T13:08:34.643Z,11.88
2022-10-11T13:11:04.529Z,13.60
2022-10-11T13:13:52.203Z,13.02
2022-10-11T13:16:25.492Z,9.20
2022-10-11T13:18:57.338Z,7.10
2022-10-11T13:21:36.379Z,11.05
2022-10-11T13:24:16.064Z,7.00
2022-10-11T13:26:51.324Z,9.32
2022-10-11T13:29:33.796Z,10.82
2022-10-11T13:32:07.950Z,11.60
2022-10-11T13:34:39.081Z,11.63
2022-10-11T13:37:06.773Z,11.48
2022-10-11T13:39:38.740Z,11.55
2022-10-11T13:42:09.143Z,14.60
2022-10-11T13:44:37.703Z,10.70
2022-10-11T13:47:04.919Z,13.25
2022-10-11T13:49:40.423Z,11.10
2022-10-11T13:52:20.939Z,12.77
2022-10-11T13:55:02.789Z,11.38
2022-10-11T13:57:49.645Z,10.80
2022-10-11T14:00:17.530Z,10.82
2022-10-11T14:02:50.400Z,11.05
2022-10-11T14:05:45.200Z,13.65
2022-10-11T14:08:24.114Z,11.25
2022-10-11T14:10:56.667Z,13.95
2022-10-11T14:13:36.627Z,7.70
2022-10-11T14:16:09.706Z,11.95
2022-10-11T14:18:42.573Z,14.68
2022-10-11T14:21:30.119Z,13.87
2022-10-11T14:23:58.080Z,13.70
2022-10-11T14:26:26.447Z,10.40
2022-10-11T14:28:57.848Z,10.48
2022-10-11T14:31:25.249Z,10.57
2022-10-11T14:33:52.976Z,11.85
2022-10-11T14:36:22.588Z,12.63
2022-10-11T14:38:51.690Z,14.40
2022-10-11T14:41:18.695Z,9.80
2022-10-11T14:43:45.369Z,10.73
2022-10-11T14:46:24.695Z,12.43
2022-10-11T14:48:56.478Z,13.68
2022-10-11T14:51:27.631Z,10.27
2022-10-11T14:53:54.483Z,13.18
2022-10-11T14:56:22.003Z,12.90
2022-10-11T14:58:48.994Z,13.30
2022-10-11T15:01:17.410Z,11.15
2022-10-11T15:03:44.429Z,16.20
2022-10-11T15:06:20.634Z,10.85
2022-10-11T15:08:47.815Z,11.85
2022-10-11T15:11:18.188Z,8.45
2022-10-11T15:13:45.597Z,8.02
2022-10-11T15:16:14.535Z,9.75
2022-10-11T15:18:41.577Z,11.63
2022-10-11T15:21:11.495Z,10.32
2022-10-11T15:23:38.272Z,12.48
2022-10-11T15:26:05.275Z,7.50
2022-10-11T15:28:33.145Z,11.60
2022-10-11T15:31:00.727Z,13.57
2022-10-11T15:33:27.449Z,10.35
2022-10-11T15:35:54.086Z,10.23
2022-10-11T15:38:25.765Z,7.72
2022-10-11T15:40:53.214Z,8.52
2022-10-11T15:43:24.518Z,18.23
2022-10-11T15:45:52.325Z,13.68
2022-10-11T15:48:21.849Z,11.88
2022-10-11T15:50:50.463Z,14.80
2022-10-11T15:53:23.644Z,8.73
2022-10-11T15:55:55.477Z,12.32
2022-10-11T15:58:33.077Z,15.35
2022-10-11T16:01:05.594Z,11.05
2022-10-11T16:03:33.754Z,12.03
2022-10-11T16:06:05.271Z,10.15
2022-10-11T16:08:33.614Z,13.43
2022-10-11T16:11:00.615Z,10.88
2022-10-11T16:13:27.439Z,13.13
2022-10-11T16:15:54.284Z,12.30
2022-10-11T16:18:22.256Z,13.00
2022-10-11T16:20:51.807Z,11.38
2022-10-11T16:23:20.047Z,15.68
2022-10-11T16:25:48.059Z,13.15
2022-10-11T16:28:14.743Z,13.02
2022-10-11T16:30:45.479Z,15.35
2022-10-11T16:33:15.019Z,14.70
2022-10-11T16:35:42.019Z,12.00
2022-10-11T16:38:09.014Z,11.38
2022-10-11T16:40:37.857Z,10.55
2022-10-11T16:43:07.861Z,8.70
2022-10-11T16:45:35.463Z,10.95
2022-10-11T16:48:02.344Z,10.95
2022-10-11T16:50:29.250Z,12.48
2022-10-11T16:52:56.370Z,11.30
2022-10-11T16:55:23.627Z,11.38
2022-10-11T16:57:50.318Z,13.18
2022-10-11T17:00:17.143Z,13.25
2022-10-11T17:02:43.971Z,10.07
2022-10-11T17:05:10.644Z,15.30
2022-10-11T17:07:37.378Z,11.35
2022-10-11T17:10:05.169Z,11.63
2022-10-11T17:12:32.539Z,12.82
2022-10-11T17:14:59.194Z,14.82
2022-10-11T17:17:27.083Z,14.90
2022-10-11T17:19:53.935Z,15.05
2022-10-11T17:22:20.744Z,26.30
2022-10-11T17:24:47.482Z,18.95
2022-10-11T17:27:14.559Z,16.02
2022-10-11T17:29:41.273Z,11.95
2022-10-11T17:32:08.401Z,13.02
2022-10-11T17:34:35.147Z,15.30
2022-10-11T17:37:01.861Z,17.38
2022-10-11T17:39:28.660Z,11.93
2022-10-11T17:41:55.306Z,12.38
2022-10-11T17:44:22.086Z,10.75
2022-10-11T17:46:49.387Z,12.05
2022-10-11T17:49:16.562Z,11.43
2022-10-11T17:51:43.939Z,9.75
2022-10-11T17:54:13.045Z,14.30
2022-10-11T17:56:41.810Z,10.15
2022-10-11T17:59:14.658Z,13.77
2022-10-11T18:01:41.440Z,11.68
2022-10-11T18:04:10.201Z,15.23
2022-10-11T18:06:39.709Z,9.77
2022-10-11T18:09:06.419Z,9.60
2022-10-11T18:11:33.902Z,11.07
2022-10-11T18:14:01.358Z,12.20
2022-10-11T18:16:30.659Z,11.57
2022-10-11T18:18:58.273Z,11.43
2022-10-11T18:21:29.880Z,13.02
2022-10-11T18:24:02.300Z,14.40
2022-10-11T18:26:30.648Z,14.30
2022-10-11T18:28:58.518Z,14.65
2022-10-11T18:31:28.464Z,15.35
2022-10-11T18:33:55.327Z,13.45
2022-10-11T18:36:24.562Z,12.10
2022-10-11T18:38:56.821Z,13.77
2022-10-11T18:41:30.713Z,13.52
2022-10-11T18:44:02.978Z,17.33
2022-10-11T18:46:30.032Z,13.38
2022-10-11T18:48:58.328Z,14.18
2022-10-11T18:51:31.306Z,12.68
2022-10-11T18:54:01.069Z,14.23
2022-10-11T18:56:29.287Z,16.70
2022-10-11T18:58:57.656Z,14.00
2022-10-11T19:01:38.105Z,12.82
2022-10-11T19:04:06.455Z,11.93
2022-10-11T19:06:39.865Z,12.52
2022-10-11T19:09:10.520Z,14.50
2022-10-11T19:11:37.865Z,15.93
2022-10-11T19:14:14.766Z,13.55
2022-10-11T19:20:06.507Z,15.77
2022-10-11T19:22:33.097Z,12.25
2022-10-11T19:24:59.743Z,17.25
2022-10-11T19:27:26.907Z,13.50
2022-10-11T19:29:53.500Z,12.48
2022-10-11T19:32:20.100Z,15.50
2022-10-11T19:34:46.673Z,13.95
2022-10-11T19:37:13.512Z,15.98
2022-10-11T19:39:40.639Z,13.35
2022-10-11T19:42:07.509Z,13.90
2022-10-11T19:44:38.652Z,15.77
2022-10-11T19:47:06.277Z,16.67
2022-10-11T19:49:32.980Z,16.52
2022-10-11T19:52:01.076Z,18.05
2022-10-11T19:54:28.279Z,14.82
2022-10-11T19:56:54.984Z,19.35
2022-10-11T19:59:21.604Z,17.55
2022-10-11T20:01:52.801Z,17.55
2022-10-11T20:07:07.222Z,17.95
2022-10-11T20:09:33.795Z,14.07
2022-10-11T20:12:00.337Z,15.20
2022-10-11T20:14:26.954Z,14.18
2022-10-11T20:16:53.655Z,14.65
2022-10-11T20:19:26.250Z,16.13
2022-10-11T20:21:54.635Z,15.07
2022-10-11T20:24:21.182Z,20.23
2022-10-11T20:26:50.823Z,16.38
2022-10-11T20:29:17.416Z,17.15
2022-10-11T20:31:44.009Z,16.83
2022-10-11T20:34:10.954Z,17.00
2022-10-11T20:36:37.639Z,16.20
2022-10-11T20:39:05.707Z,14.50
2022-10-11T20:41:40.156Z,17.70
2022-10-11T20:44:08.855Z,17.73
2022-10-11T20:46:38.558Z,16.63
2022-10-11T20:49:11.326Z,18.33
2022-10-11T20:51:39.821Z,15.23
2022-10-11T20:54:06.903Z,18.50
2022-10-11T20:56:34.429Z,16.15
2022-10-11T20:59:01.503Z,20.92
2022-10-11T21:01:34.395Z,15.05
2022-10-11T21:04:01.766Z,15.77
2022-10-11T21:06:29.899Z,18.65
2022-10-11T21:08:56.828Z,17.80
2022-10-11T21:11:31.893Z,18.73
2022-10-11T21:14:00.285Z,20.73
2022-10-11T21:16:27.734Z,20.05
2022-10-11T21:18:56.691Z,21.45
2022-10-11T21:21:24.057Z,21.05
2022-10-11T21:23:55.086Z,16.33
2022-10-11T21:26:22.111Z,18.85
2022-10-11T21:28:49.184Z,22.77
2022-10-11T21:31:18.034Z,23.92
2022-10-11T21:33:44.934Z,19.95
2022-10-11T21:36:14.507Z,20.25
2022-10-11T21:38:41.587Z,19.58
2022-10-11T21:41:19.529Z,20.42
2022-10-11T21:43:47.305Z,22.48
2022-10-11T21:46:18.655Z,22.17
2022-10-11T21:48:45.540Z,18.92
2022-10-11T21:51:21.838Z,20.85
2022-10-11T21:53:48.571Z,19.70
2022-10-11T21:56:15.754Z,21.38
2022-10-11T21:58:42.526Z,20.73
2022-10-11T22:01:10.866Z,19.85
2022-10-11T22:03:37.493Z,20.05
2022-10-11T22:06:05.127Z,15.77
2022-10-11T22:08:31.739Z,19.92
2022-10-11T22:10:59.574Z,16.52
2022-10-11T22:13:27.379Z,17.90
2022-10-11T22:15:56.235Z,15.48
2022-10-11T22:18:24.036Z,16.52
2022-10-11T22:20:51.509Z,16.48
2022-10-11T22:23:19.055Z,18.00
2022-10-11T22:25:45.917Z,16.67
2022-10-11T22:28:12.733Z,21.77
2022-10-11T22:30:39.326Z,18.77
2022-10-11T22:33:05.826Z,16.42
2022-10-11T22:35:37.334Z,17.85
2022-10-11T22:38:06.102Z,18.48
2022-10-11T22:40:32.985Z,20.70
2022-10-11T22:42:59.649Z,18.33
2022-10-11T22:45:26.220Z,16.77
2022-10-11T22:47:52.864Z,16.88
2022-10-11T22:50:22.646Z,21.40
2022-10-11T22:52:49.173Z,18.95
2022-10-11T22:55:20.216Z,17.58
2022-10-11T22:57:46.958Z,19.80
2022-10-11T23:00:13.851Z,19.02
2022-10-11T23:02:40.410Z,21.38
2022-10-11T23:05:07.225Z,22.42
2022-10-11T23:07:33.918Z,23.63
2022-10-11T23:10:00.779Z,20.98
2022-10-11T23:12:27.521Z,26.40
2022-10-11T23:14:54.119Z,21.90
2022-10-11T23:17:20.700Z,23.15
2022-10-11T23:19:47.331Z,23.58
2022-10-11T23:22:13.915Z,30.77
2022-10-11T23:24:40.447Z,23.75
2022-10-11T23:27:07.330Z,20.83
2022-10-11T23:29:34.010Z,26.45
2022-10-11T23:32:00.537Z,24.67
2022-10-11T23:34:27.122Z,23.67
2022-10-11T23:36:53.640Z,20.88
2022-10-11T23:39:20.132Z,26.83
2022-10-11T23:41:46.830Z,28.42
2022-10-11T23:44:13.392Z,23.23
2022-10-11T23:46:39.981Z,23.90
2022-10-11T23:49:06.665Z,23.20
2022-10-11T23:51:33.241Z,24.30
2022-10-11T23:54:00.028Z,24.45
2022-10-11T23:56:26.622Z,24.33
2022-10-11T23:58:53.229Z,24.60
